createdAt,value
2023-02-22T00:01:51.270Z,16.55
2023-02-22T00:05:33.791Z,17.67
2023-02-22T00:09:21.113Z,18.50
2023-02-22T00:13:03.021Z,18.58
2023-02-22T00:16:45.025Z,17.73
2023-02-22T00:20:27.242Z,18.67
2023-02-22T00:24:23.424Z,18.67
2023-02-22T00:28:05.743Z,18.95
2023-02-22T00:31:47.863Z,17.80
2023-02-22T00:35:31.366Z,17.65
2023-02-22T00:39:13.270Z,16.58
2023-02-22T00:42:55.144Z,17.20
2023-02-22T00:46:37.352Z,16.55
2023-02-22T00:50:20.959Z,15.90
2023-02-22T00:54:02.948Z,16.63
2023-02-22T00:57:45.407Z,16.42
2023-02-22T01:01:28.008Z,15.85
2023-02-22T01:05:12.805Z,16.02
2023-02-22T01:08:55.085Z,15.90
2023-02-22T01:12:37.356Z,16.13
2023-02-22T01:16:19.335Z,15.07
2023-02-22T01:20:01.295Z,14.63
2023-02-22T01:23:45.964Z,13.88
2023-02-22T01:27:28.182Z,13.13
2023-02-22T01:31:10.815Z,11.80
2023-02-22T01:34:56.491Z,12.27
2023-02-22T01:38:39.484Z,14.02
2023-02-22T01:42:21.534Z,13.23
2023-02-22T01:46:19.094Z,12.97
2023-02-22T01:50:01.160Z,12.95
2023-02-22T01:53:46.119Z,12.45
2023-02-22T01:57:37.898Z,11.13
2023-02-22T02:01:23.118Z,11.02
2023-02-22T02:05:08.431Z,10.02
2023-02-22T02:09:02.907Z,10.45
2023-02-22T02:12:48.808Z,9.68
2023-02-22T02:16:41.346Z,9.07
2023-02-22T02:20:45.066Z,8.45
2023-02-22T02:24:48.466Z,8.87
2023-02-22T02:28:56.683Z,8.45
2023-02-22T02:32:59.498Z,8.70
2023-02-22T02:37:04.313Z,8.93
2023-02-22T02:41:07.538Z,8.18
2023-02-22T02:44:57.063Z,9.00
2023-02-22T02:48:57.938Z,9.40
2023-02-22T02:52:44.458Z,9.27
2023-02-22T02:56:27.415Z,9.20
2023-02-22T03:00:24.941Z,7.60
2023-02-22T03:04:20.596Z,7.27
2023-02-22T03:08:11.088Z,8.55
2023-02-22T03:12:02.395Z,7.80
2023-02-22T03:15:55.521Z,8.57
2023-02-22T03:19:46.117Z,8.20
2023-02-22T03:23:28.119Z,9.43
2023-02-22T03:27:17.517Z,10.50
2023-02-22T03:31:07.598Z,10.50
2023-02-22T03:34:58.973Z,10.60
2023-02-22T03:38:43.078Z,11.63
2023-02-22T03:42:32.204Z,11.13
2023-02-22T03:46:15.509Z,12.90
2023-02-22T03:50:07.058Z,10.98
2023-02-22T03:53:49.274Z,12.33
2023-02-22T03:57:38.298Z,12.75
2023-02-22T04:01:23.908Z,13.02
2023-02-22T04:05:06.334Z,13.05
2023-02-22T04:08:48.348Z,14.85
2023-02-22T04:12:30.386Z,14.13
2023-02-22T04:16:12.478Z,15.57
2023-02-22T04:19:55.079Z,15.40
2023-02-22T04:23:37.060Z,14.52
2023-02-22T04:27:19.200Z,14.30
2023-02-22T04:31:01.250Z,14.13
2023-02-22T04:34:43.328Z,14.48
2023-02-22T04:38:28.653Z,13.95
2023-02-22T04:42:13.257Z,13.20
2023-02-22T04:45:55.469Z,13.18
2023-02-22T04:49:39.073Z,11.93
2023-02-22T04:53:21.331Z,13.30
2023-02-22T04:57:03.539Z,13.47
2023-02-22T05:00:45.688Z,12.45
2023-02-22T05:04:27.765Z,11.95
2023-02-22T05:08:12.221Z,12.70
2023-02-22T05:11:54.210Z,11.77
2023-02-22T05:15:36.164Z,11.73
2023-02-22T05:19:18.160Z,12.73
2023-02-22T05:23:01.612Z,12.57
2023-02-22T05:26:45.301Z,12.65
2023-02-22T05:30:34.343Z,11.80
2023-02-22T05:34:19.167Z,11.03
2023-02-22T05:38:03.260Z,10.77
2023-02-22T05:41:45.437Z,12.48
2023-02-22T05:45:28.233Z,11.77
2023-02-22T05:49:10.395Z,11.70
2023-02-22T05:52:53.187Z,11.43
2023-02-22T05:56:36.508Z,11.83
2023-02-22T06:00:28.147Z,11.55
2023-02-22T06:04:10.148Z,11.50
2023-02-22T06:07:52.389Z,13.32
2023-02-22T06:11:34.374Z,11.87
2023-02-22T06:15:17.685Z,11.93
2023-02-22T06:19:00.770Z,11.43
2023-02-22T06:22:43.035Z,11.60
2023-02-22T06:26:25.119Z,12.13
2023-02-22T06:30:08.096Z,12.18
2023-02-22T06:33:50.476Z,13.63
2023-02-22T06:37:32.497Z,12.38
2023-02-22T06:41:15.945Z,12.57
2023-02-22T06:44:58.130Z,12.25
2023-02-22T06:48:40.655Z,12.40
2023-02-22T06:52:23.346Z,11.75
2023-02-22T06:56:05.929Z,12.75
2023-02-22T06:59:48.011Z,13.17
2023-02-22T07:03:30.025Z,12.32
2023-02-22T07:07:12.093Z,12.52
2023-02-22T07:10:54.297Z,12.23
2023-02-22T07:14:36.335Z,12.20
2023-02-22T07:18:18.277Z,12.68
2023-02-22T07:22:00.311Z,13.60
2023-02-22T07:25:42.634Z,12.07
2023-02-22T07:29:24.558Z,12.82
2023-02-22T07:33:09.753Z,11.85
2023-02-22T07:36:54.332Z,11.27
2023-02-22T07:40:38.254Z,10.18
2023-02-22T07:44:20.220Z,11.13
2023-02-22T07:48:33.406Z,11.57
2023-02-22T07:52:15.420Z,10.57
2023-02-22T07:56:27.679Z,10.27
2023-02-22T08:00:10.948Z,10.73
2023-02-22T08:04:39.612Z,9.90
2023-02-22T08:09:06.919Z,10.40
2023-02-22T08:21:44.950Z,10.23
2023-02-22T08:26:00.795Z,10.18
2023-02-22T08:38:30.057Z,12.00
2023-02-22T08:46:33.379Z,10.47
2023-02-22T08:50:54.062Z,12.45
2023-02-22T09:03:14.148Z,8.90
2023-02-22T09:34:55.888Z,2.38
2023-02-22T10:16:39.999Z,1.83
2023-02-22T10:21:00.520Z,1.67
2023-02-22T10:42:25.268Z,1.23
2023-02-22T10:55:59.160Z,0.70
2023-02-22T11:04:54.845Z,0.57
2023-02-22T11:13:57.410Z,0.50
2023-02-22T11:41:02.279Z,0.70
2023-02-22T11:50:04.126Z,0.52
2023-02-22T11:59:01.351Z,0.40
2023-02-22T12:12:38.574Z,0.80
2023-02-22T12:17:08.418Z,0.60
2023-02-22T12:45:17.417Z,0.95
2023-02-22T13:12:21.341Z,0.60
2023-02-22T13:21:21.087Z,0.60
2023-02-22T13:25:51.614Z,0.80
2023-02-22T13:30:15.969Z,0.50
2023-02-22T13:43:54.654Z,0.50
2023-02-22T13:52:54.547Z,0.60
2023-02-22T16:42:58.541Z,0.70
2023-02-22T17:12:08.290Z,0.70
2023-02-22T17:15:58.649Z,0.80
2023-02-22T17:24:43.287Z,0.90
2023-02-22T17:32:37.444Z,1.60
2023-02-22T17:41:01.546Z,2.13
2023-02-22T18:41:26.686Z,1.90
2023-02-22T18:45:08.927Z,1.83
2023-02-22T18:48:54.519Z,1.40
2023-02-22T18:57:31.375Z,1.50
2023-02-22T19:01:19.154Z,1.77
2023-02-22T19:05:02.483Z,1.73
2023-02-22T19:08:46.263Z,1.80
2023-02-22T19:12:28.533Z,1.90
2023-02-22T19:16:58.686Z,2.40
2023-02-22T19:24:22.676Z,2.73
2023-02-22T19:28:04.863Z,2.60
2023-02-22T19:31:51.299Z,3.42
2023-02-22T19:40:03.868Z,3.28
2023-02-22T19:43:58.933Z,4.00
2023-02-22T19:47:41.195Z,3.95
2023-02-22T19:51:28.062Z,4.00
2023-02-22T19:55:12.761Z,2.78
2023-02-22T19:58:56.977Z,2.30
2023-02-22T20:02:42.356Z,3.20
2023-02-22T20:06:28.241Z,2.92
2023-02-22T20:10:10.301Z,2.90
2023-02-22T20:13:52.716Z,3.20
2023-02-22T20:17:34.735Z,3.88
2023-02-22T20:21:24.505Z,3.97
2023-02-22T20:25:06.691Z,4.50
2023-02-22T20:28:49.709Z,3.67
2023-02-22T20:32:32.508Z,3.58
2023-02-22T20:36:17.513Z,3.67
2023-02-22T20:40:00.118Z,3.20
2023-02-22T20:43:42.397Z,3.38
2023-02-22T20:47:24.443Z,3.65
2023-02-22T20:51:08.238Z,3.03
2023-02-22T20:54:50.237Z,2.72
2023-02-22T20:58:32.504Z,2.25
2023-02-22T21:02:14.561Z,2.10
2023-02-22T21:05:56.547Z,2.20
2023-02-22T21:09:38.623Z,2.10
2023-02-22T21:13:20.570Z,1.90
2023-02-22T21:17:04.681Z,2.33
2023-02-22T21:20:48.531Z,2.20
2023-02-22T21:24:30.662Z,2.03
2023-02-22T21:28:12.754Z,2.27
2023-02-22T21:31:55.830Z,1.95
2023-02-22T21:35:40.367Z,2.15
2023-02-22T21:39:22.818Z,2.05
2023-02-22T21:43:10.757Z,1.87
2023-02-22T21:46:52.761Z,1.80
2023-02-22T21:50:37.857Z,1.60
2023-02-22T21:54:20.698Z,1.97
2023-02-22T21:58:03.329Z,2.20
2023-02-22T22:01:47.881Z,1.58
2023-02-22T22:05:35.592Z,2.10
2023-02-22T22:09:18.410Z,1.42
2023-02-22T22:13:00.807Z,1.83
2023-02-22T22:16:43.432Z,2.08
2023-02-22T22:20:25.427Z,2.10
2023-02-22T22:24:08.847Z,2.13
2023-02-22T22:27:51.386Z,2.10
2023-02-22T22:31:33.489Z,2.10
2023-02-22T22:35:20.597Z,2.60
2023-02-22T22:39:05.147Z,2.90
2023-02-22T22:42:47.467Z,2.63
2023-02-22T22:46:29.419Z,2.97
2023-02-22T22:50:16.922Z,2.50
2023-02-22T22:53:59.367Z,2.63
2023-02-22T22:57:42.353Z,2.53
2023-02-22T23:01:28.047Z,2.65
2023-02-22T23:05:10.252Z,2.60
2023-02-22T23:09:14.220Z,2.20
2023-02-22T23:12:56.670Z,2.50
2023-02-22T23:16:40.043Z,3.00
2023-02-22T23:20:26.487Z,2.77
2023-02-22T23:24:08.464Z,3.00
2023-02-22T23:27:51.399Z,2.90
2023-02-22T23:31:33.428Z,3.65
2023-02-22T23:35:16.339Z,3.20
2023-02-22T23:38:58.225Z,3.20
2023-02-22T23:42:40.162Z,3.72
2023-02-22T23:46:22.054Z,3.67
2023-02-22T23:50:13.591Z,3.45
2023-02-22T23:53:56.966Z,4.40
2023-02-22T23:57:43.256Z,4.20
